Time;durP1;ratioP1;P1;durP2;ratioP2;P2;SDS_P1;SDS_P2;PMS_P1;PMS_P2;Temp;Humidity;BMP_temperature;BMP_pressure;BME280_temperature;BME280_humidity;BME280_pressure;Samples;Min_cycle;Max_cycle;Signal;HPM_P1;HPM_P2
2023/10/02 00:05:07;;;;;;;11.07;6.07;;;16.80;60.70;;;18.38;47.67;98281.31;5032058;28;20046;-57
2023/10/02 00:07:42;;;;;;;12.70;6.82;;;16.90;60.80;;;18.41;47.64;98272.00;5030519;28;20500;-59
2023/10/02 00:10:15;;;;;;;14.90;7.35;;;16.90;60.90;;;18.45;47.64;98279.47;5031011;28;20516;-59
2023/10/02 00:12:58;;;;;;;12.30;5.67;;;16.90;60.80;;;18.49;47.54;98275.41;5031850;28;20044;-59
2023/10/02 00:15:26;;;;;;;11.80;6.80;;;17.00;60.50;;;18.58;47.49;98277.94;5030418;28;20056;-59
2023/10/02 00:17:57;;;;;;;11.88;6.03;;;17.00;60.10;;;18.62;47.19;98273.81;5031921;28;20041;-59
2023/10/02 00:20:27;;;;;;;12.05;7.55;;;17.10;59.90;;;18.66;47.30;98273.19;5031461;28;20049;-58
2023/10/02 00:22:55;;;;;;;12.00;6.50;;;17.10;59.90;;;18.64;47.04;98280.66;5030527;28;20417;-59
2023/10/02 00:25:27;;;;;;;11.82;5.57;;;17.10;60.00;;;18.63;47.21;98280.84;5013537;28;20053;-59
2023/10/02 00:27:55;;;;;;;12.05;5.68;;;17.00;60.20;;;18.60;47.23;98279.38;5031602;28;20048;-59
2023/10/02 00:30:35;;;;;;;10.68;5.93;;;16.90;60.40;;;18.56;47.27;98274.59;5031639;28;20041;-59
2023/10/02 00:33:05;;;;;;;12.75;6.43;;;16.90;60.80;;;18.53;47.42;98274.97;5030636;28;20073;-59
2023/10/02 00:35:50;;;;;;;14.02;7.78;;;16.80;61.00;;;18.49;47.39;98277.22;5029814;28;20057;-59
2023/10/02 00:38:18;;;;;;;11.05;6.25;;;16.80;61.00;;;18.45;47.51;98273.25;5030149;28;20057;-59
2023/10/02 00:40:45;;;;;;;13.02;6.45;;;16.70;61.40;;;18.40;47.40;98265.78;5014023;28;20416;-59
2023/10/02 00:45:59;;;;;;;11.45;6.63;;;16.60;61.60;;;18.33;47.66;98272.97;5023488;28;20505;-59
2023/10/02 00:48:28;;;;;;;9.45;5.75;;;16.60;62.00;;;18.27;47.77;98268.38;5031242;28;20046;-59
2023/10/02 00:51:06;;;;;;;11.70;7.30;;;16.50;62.30;;;18.21;48.13;98271.84;5031302;28;20507;-58
2023/10/02 00:53:38;;;;;;;13.10;6.93;;;16.40;63.00;;;18.15;48.01;98269.94;5030049;28;20144;-59
2023/10/02 00:56:19;;;;;;;13.48;7.00;;;16.30;62.90;;;18.13;48.08;98270.13;5029436;28;20412;-58
2023/10/02 00:59:14;;;;;;;13.48;6.68;;;16.30;62.80;;;18.05;48.07;98271.09;5022075;28;20049;-59
2023/10/02 01:01:42;;;;;;;13.13;6.18;;;16.20;63.10;;;18.00;48.09;98265.44;5029562;28;20045;-59
2023/10/02 01:04:10;;;;;;;11.70;6.30;;;16.10;63.20;;;17.95;47.93;98261.66;5029331;28;20520;-58
2023/10/02 01:09:36;;;;;;;10.57;6.07;;;16.10;63.80;;;17.85;48.42;98254.72;5031254;28;20046;-59
2023/10/02 01:12:10;;;;;;;10.88;6.57;;;16.00;63.90;;;17.82;48.64;98256.97;5013531;28;20400;-58
2023/10/02 01:14:40;;;;;;;15.10;7.05;;;16.00;64.00;;;17.79;48.59;98260.88;5029706;28;20369;-58
2023/10/02 01:17:09;;;;;;;12.55;6.63;;;15.90;64.00;;;17.76;48.51;98263.09;5021376;28;20053;-59
2023/10/02 01:19:53;;;;;;;15.75;6.85;;;15.90;63.90;;;17.72;48.47;98257.28;5029757;28;20060;-59
2023/10/02 01:22:30;;;;;;;12.35;6.72;;;15.90;63.90;;;17.68;48.64;98250.59;5030084;28;20050;-59
2023/10/02 01:25:13;;;;;;;12.10;6.68;;;15.80;64.30;;;17.66;48.87;98252.66;5022734;28;20187;-59
2023/10/02 01:27:50;;;;;;;13.20;6.60;;;15.80;64.30;;;17.61;48.96;98258.63;5029408;28;20048;-59
2023/10/02 01:30:22;;;;;;;11.98;6.60;;;15.80;64.70;;;17.59;48.96;98257.16;5030966;28;20045;-59
2023/10/02 01:35:49;;;;;;;13.27;6.28;;;15.80;65.30;;;17.51;49.66;98258.94;5029805;28;20057;-58
2023/10/02 01:38:31;;;;;;;12.32;7.22;;;15.70;65.80;;;17.48;49.53;98255.78;5030610;28;20049;-58
2023/10/02 01:41:03;;;;;;;12.45;7.18;;;15.60;66.20;;;17.45;49.50;98256.19;5022637;28;20049;-59
2023/10/02 01:43:44;;;;;;;12.40;6.50;;;15.60;66.10;;;17.41;49.67;98254.88;5029384;28;20048;-59
2023/10/02 01:46:17;;;;;;;12.60;6.70;;;15.60;66.40;;;17.40;49.75;98259.44;5029425;28;20500;-57
2023/10/02 01:48:51;;;;;;;13.82;6.63;;;15.60;66.30;;;17.39;49.91;98259.59;5029809;28;20049;-59
2023/10/02 01:51:21;;;;;;;13.98;7.35;;;15.60;66.50;;;17.36;50.09;98254.63;5030668;28;20037;-58
2023/10/02 01:54:02;;;;;;;14.45;6.88;;;15.60;66.70;;;17.32;50.14;98259.53;5030524;28;20041;-59
2023/10/02 01:56:34;;;;;;;10.75;6.10;;;15.50;67.50;;;17.31;50.28;98261.41;5029189;28;20102;-59
2023/10/02 01:59:09;;;;;;;12.38;6.30;;;15.50;67.30;;;17.29;50.31;98257.22;5029499;28;20493;-59
2023/10/02 02:01:56;;;;;;;11.18;6.05;;;15.50;67.40;;;17.26;50.22;98255.75;5014397;28;20060;-58
2023/10/02 02:04:28;;;;;;;9.98;5.28;;;15.50;67.50;;;17.24;50.37;98255.09;5028874;28;20052;-59
2023/10/02 02:07:00;;;;;;;11.20;6.30;;;15.50;67.90;;;17.22;50.68;98257.16;5021422;28;20042;-57
2023/10/02 02:09:31;;;;;;;12.38;6.38;;;15.40;68.80;;;17.19;50.75;98257.53;5029176;28;20045;-58
2023/10/02 02:12:10;;;;;;;12.63;6.50;;;15.40;68.30;;;17.18;50.74;98261.25;5021946;28;20049;-57
2023/10/02 02:14:49;;;;;;;12.38;6.32;;;15.40;68.10;;;17.18;50.83;98252.34;5030319;28;20517;-59
2023/10/02 02:17:26;;;;;;;13.13;7.30;;;15.40;68.10;;;17.17;50.83;98259.56;5032436;28;20049;-58
2023/10/02 02:20:10;;;;;;;18.40;8.43;;;15.40;68.30;;;17.16;50.76;98257.91;5026126;28;20045;-58
2023/10/02 02:22:38;;;;;;;13.48;7.43;;;15.40;68.10;;;17.14;50.80;98259.97;5034083;28;20053;-57
2023/10/02 02:25:06;;;;;;;11.57;5.88;;;15.30;68.10;;;17.11;51.07;98260.31;5032560;28;20041;-58
2023/10/02 02:27:33;;;;;;;12.25;6.82;;;15.30;68.70;;;17.09;51.03;98257.00;5032560;28;20057;-59
2023/10/02 02:30:10;;;;;;;12.32;6.68;;;15.30;68.90;;;17.06;51.15;98258.22;5032937;28;20532;-58
2023/10/02 02:32:44;;;;;;;11.50;6.38;;;15.20;69.30;;;17.05;51.34;98261.09;5032898;28;20046;-59
2023/10/02 02:35:15;;;;;;;11.30;6.32;;;15.30;69.40;;;17.02;51.41;98256.91;5016908;28;20061;-58
2023/10/02 02:37:43;;;;;;;11.65;5.82;;;15.20;69.30;;;17.02;51.28;98261.44;5032047;28;20049;-58
2023/10/02 02:40:25;;;;;;;13.15;6.13;;;15.20;69.30;;;16.99;51.46;98262.66;5033802;28;20041;-57
2023/10/02 02:42:56;;;;;;;12.48;6.72;;;15.10;69.70;;;16.97;51.57;98267.41;5032362;28;20535;-57
2023/10/02 02:45:28;;;;;;;12.18;6.68;;;15.20;70.20;;;16.94;52.07;98265.06;5032307;28;20056;-58
2023/10/02 02:48:04;;;;;;;12.63;6.15;;;15.10;71.10;;;16.89;52.22;98265.63;5025069;28;20040;-58
2023/10/02 02:50:40;;;;;;;12.00;6.78;;;15.00;71.20;;;16.89;52.18;98260.25;5032708;28;20049;-58
2023/10/02 02:53:23;;;;;;;13.57;7.15;;;15.10;70.90;;;16.89;52.05;98262.13;5033427;28;20041;-58
2023/10/02 02:56:10;;;;;;;14.50;7.63;;;15.10;70.80;;;16.87;52.12;98259.63;5031704;28;20094;-58
2023/10/02 02:58:38;;;;;;;11.40;6.53;;;15.10;71.10;;;16.87;52.35;98256.09;5033133;28;20420;-58
2023/10/02 03:01:12;;;;;;;13.50;6.18;;;15.00;71.20;;;16.85;52.52;98253.59;5031828;28;20060;-59
2023/10/02 03:03:42;;;;;;;12.13;6.75;;;15.10;71.60;;;16.84;52.25;98251.91;5031604;28;20053;-58
2023/10/02 03:06:24;;;;;;;13.75;6.55;;;15.10;71.10;;;16.82;52.49;98256.63;5032890;28;20042;-58
2023/10/02 03:08:52;;;;;;;12.27;6.32;;;15.00;71.80;;;16.80;52.29;98255.97;5031498;28;20041;-58
2023/10/02 03:11:28;;;;;;;15.63;7.63;;;15.00;71.50;;;16.81;52.36;98256.78;5033178;28;20057;-58
2023/10/02 03:14:15;;;;;;;11.32;6.00;;;15.00;71.40;;;16.80;52.44;98252.44;5033098;28;20520;-55
2023/10/02 03:16:45;;;;;;;14.77;6.78;;;15.00;71.20;;;16.79;52.50;98258.81;5031535;28;20045;-58
2023/10/02 03:19:16;;;;;;;13.73;7.03;;;15.00;71.60;;;16.79;53.02;98258.81;5033174;28;20038;-59
2023/10/02 03:21:43;;;;;;;12.95;6.28;;;15.00;72.10;;;16.80;53.31;98263.19;5032641;28;20042;-59
2023/10/02 03:24:12;;;;;;;15.98;7.30;;;15.10;73.30;;;16.79;53.46;98254.31;5032794;28;20052;-58
2023/10/02 03:26:43;;;;;;;13.85;7.03;;;15.10;73.50;;;16.80;53.69;98255.97;5032381;28;20048;-58
2023/10/02 03:29:16;;;;;;;13.30;6.43;;;15.10;73.60;;;16.82;53.80;98267.41;5031478;28;20042;-56
2023/10/02 03:31:49;;;;;;;15.68;8.68;;;15.10;73.70;;;16.84;53.84;98259.16;5032781;28;20050;-58
2023/10/02 03:34:30;;;;;;;12.63;7.65;;;15.10;73.80;;;16.85;53.79;98267.03;5032491;28;20045;-58
2023/10/02 03:39:52;;;;;;;11.30;6.60;;;15.20;73.40;;;16.89;53.70;98267.50;5032390;28;20057;-57
2023/10/02 03:42:25;;;;;;;13.95;6.90;;;15.20;73.30;;;16.89;53.70;98275.56;5032622;28;20038;-58
2023/10/02 03:44:56;;;;;;;12.95;6.70;;;15.20;73.20;;;16.91;53.72;98268.16;5030910;28;20038;-58
2023/10/02 03:47:30;;;;;;;11.20;6.22;;;15.20;73.10;;;16.92;53.73;98267.13;5030856;28;20460;-58
2023/10/02 03:50:01;;;;;;;11.43;6.32;;;15.20;73.10;;;16.92;53.93;98269.81;5032397;28;20069;-58
2023/10/02 03:52:33;;;;;;;12.02;5.50;;;15.20;73.50;;;16.88;53.86;98273.88;5032539;28;20048;-58
2023/10/02 03:55:14;;;;;;;12.02;6.65;;;15.10;74.10;;;16.83;53.97;98276.31;5032230;28;20042;-58
2023/10/02 03:57:50;;;;;;;15.93;8.13;;;15.00;74.40;;;16.81;53.86;98273.78;5031666;28;20071;-59
2023/10/02 04:00:26;;;;;;;11.43;5.78;;;15.00;74.30;;;16.81;53.95;98268.41;5032305;28;20041;-59
2023/10/02 04:02:57;;;;;;;11.95;7.22;;;15.00;74.00;;;16.80;53.87;98272.09;5032071;28;20072;-59
2023/10/02 04:05:32;;;;;;;13.50;7.35;;;15.00;73.90;;;16.77;53.92;98277.88;5031769;28;20056;-58
2023/10/02 04:08:14;;;;;;;13.73;7.55;;;14.90;74.10;;;16.76;53.95;98268.13;5031822;28;20394;-58
2023/10/02 04:10:56;;;;;;;11.63;6.55;;;14.90;74.10;;;16.73;53.73;98268.50;5030721;28;20053;-59
2023/10/02 04:13:32;;;;;;;12.82;7.28;;;14.90;73.90;;;16.71;53.91;98273.19;5031952;28;20041;-58
2023/10/02 04:18:49;;;;;;;13.73;7.53;;;14.80;74.00;;;16.64;53.72;98269.59;5031878;28;20045;-58
2023/10/02 04:21:22;;;;;;;11.60;7.07;;;14.70;74.30;;;16.59;53.96;98264.75;5032057;28;20068;-59
2023/10/02 04:23:56;;;;;;;10.35;6.70;;;14.70;74.30;;;16.58;54.00;98265.78;5031742;28;20054;-59
2023/10/02 04:26:28;;;;;;;14.48;6.95;;;14.80;74.20;;;16.56;54.02;98267.00;5031188;28;20519;-59
2023/10/02 04:29:09;;;;;;;16.40;7.90;;;14.80;74.00;;;16.54;54.08;98276.06;5030482;28;20416;-58
2023/10/02 04:31:41;;;;;;;12.23;6.75;;;14.70;74.10;;;16.52;53.99;98278.13;5031703;28;20049;-58
2023/10/02 04:36:50;;;;;;;17.70;7.13;;;14.60;74.20;;;16.46;54.06;98267.25;5031306;28;20049;-59
2023/10/02 04:42:15;;;;;;;18.73;7.82;;;14.70;74.60;;;16.45;54.46;98265.59;5030475;28;20049;-58
2023/10/02 04:44:47;;;;;;;13.30;7.85;;;14.60;75.00;;;16.43;54.52;98268.47;5031431;28;20041;-59
2023/10/02 04:47:18;;;;;;;14.10;6.15;;;14.60;75.00;;;16.41;54.54;98267.81;5030346;28;20052;-59
2023/10/02 04:52:58;;;;;;;14.15;7.60;;;14.60;76.00;;;16.37;54.86;98274.56;5031545;28;20042;-58
2023/10/02 04:55:41;;;;;;;14.27;8.18;;;14.50;76.60;;;16.36;54.75;98269.38;5025387;28;20049;-59
2023/10/02 04:58:18;;;;;;;14.75;7.95;;;14.60;76.50;;;16.36;55.01;98270.19;5022006;28;20045;-59
2023/10/02 05:03:36;;;;;;;15.00;7.13;;;14.60;76.00;;;16.32;55.10;98269.75;5030923;28;20531;-58
2023/10/02 05:06:06;;;;;;;10.20;7.10;;;14.60;75.90;;;16.33;55.15;98265.22;5030495;28;20048;-59
2023/10/02 05:11:08;;;;;;;13.73;7.25;;;14.60;77.00;;;16.31;55.78;98272.63;5029750;28;20052;-59
2023/10/02 05:13:46;;;;;;;15.80;8.13;;;14.60;77.50;;;16.31;55.85;98264.56;5030994;28;20072;-58
2023/10/02 05:16:32;;;;;;;16.08;7.13;;;14.60;77.60;;;16.33;55.93;98263.34;5023676;28;20041;-59
2023/10/02 05:19:05;;;;;;;10.38;6.05;;;14.60;77.40;;;16.37;55.63;98263.00;5029909;28;20060;-58
2023/10/02 05:21:55;;;;;;;13.02;7.25;;;14.70;76.60;;;16.37;55.42;98268.38;5031049;28;20048;-59
2023/10/02 05:24:23;;;;;;;11.25;6.50;;;14.60;76.20;;;16.39;55.31;98267.16;5024100;28;20404;-59
2023/10/02 05:26:51;;;;;;;15.70;6.93;;;14.70;76.00;;;16.39;55.34;98269.03;5030469;28;20041;-59
2023/10/02 05:29:41;;;;;;;15.18;7.32;;;14.60;75.60;;;16.38;55.23;98272.72;5030906;28;20515;-59
2023/10/02 05:32:19;;;;;;;17.08;7.20;;;14.60;75.80;;;16.36;55.23;98264.81;5030526;28;20050;-59
2023/10/02 05:35:16;;;;;;;13.27;8.13;;;14.60;76.00;;;16.36;55.33;98267.50;5030286;28;20038;-59
2023/10/02 05:37:47;;;;;;;12.63;6.72;;;14.60;76.30;;;16.37;55.54;98271.88;5030359;28;20208;-59
2023/10/02 05:51:12;;;;;;;12.30;6.97;;;14.70;77.00;;;16.41;55.61;98275.88;5032654;28;20030;-58
2023/10/02 05:53:53;;;;;;;16.35;8.50;;;14.80;76.80;;;16.43;55.75;98278.38;5032976;28;20053;-57
2023/10/02 05:56:21;;;;;;;13.55;6.85;;;14.80;76.60;;;16.44;55.71;98278.19;5026671;28;20178;-58
2023/10/02 05:58:49;;;;;;;15.18;7.53;;;14.70;76.50;;;16.47;55.83;98282.38;5034205;28;20064;-57
2023/10/02 06:01:26;;;;;;;16.05;8.55;;;14.80;76.50;;;16.47;55.87;98282.38;5026597;28;20277;-57
2023/10/02 06:04:00;;;;;;;14.75;8.40;;;14.80;76.60;;;16.47;55.82;98280.50;5034250;28;20056;-58
2023/10/02 06:06:35;;;;;;;11.65;6.95;;;14.80;76.80;;;16.48;55.69;98281.38;5033673;28;20042;-57
2023/10/02 06:09:14;;;;;;;13.65;6.78;;;14.80;76.80;;;16.49;55.90;98285.72;5034311;28;20428;-58
2023/10/02 06:12:02;;;;;;;13.23;7.20;;;14.80;76.80;;;16.50;55.78;98284.69;5034016;28;20050;-56
2023/10/02 06:14:38;;;;;;;13.65;6.82;;;14.80;76.70;;;16.52;55.72;98288.03;5027761;28;20046;-57
2023/10/02 06:17:11;;;;;;;13.48;7.13;;;14.80;76.40;;;16.51;55.81;98289.88;5033774;28;20084;-56
2023/10/02 06:19:44;;;;;;;14.23;6.95;;;14.80;76.30;;;16.54;55.71;98286.81;5034033;28;20416;-59
2023/10/02 06:22:13;;;;;;;13.75;7.53;;;14.80;76.30;;;16.56;55.93;98283.13;5031980;28;20160;-58
2023/10/02 06:24:45;;;;;;;17.25;7.43;;;14.90;76.20;;;16.57;55.94;98291.00;5032571;28;20049;-58
2023/10/02 06:27:17;;;;;;;12.95;7.13;;;14.90;76.10;;;16.60;55.82;98289.81;5033246;28;20046;-56
2023/10/02 06:29:47;;;;;;;12.75;7.57;;;14.90;76.00;;;16.63;56.01;98286.72;5033915;28;20064;-58
2023/10/02 06:32:19;;;;;;;12.25;7.40;;;15.00;75.90;;;16.65;55.98;98292.75;5032645;28;20045;-58
2023/10/02 06:34:50;;;;;;;13.73;9.00;;;15.00;76.10;;;16.68;55.83;98287.03;5033550;28;20061;-55
2023/10/02 06:37:35;;;;;;;13.98;8.13;;;15.00;76.10;;;16.72;55.97;98291.00;5033619;28;20049;-58
2023/10/02 06:42:32;;;;;;;13.10;8.48;;;15.10;76.20;;;16.79;55.92;98297.34;5032065;28;20512;-58
2023/10/02 06:45:02;;;;;;;15.13;8.18;;;15.20;76.20;;;16.83;55.90;98295.97;5033177;28;20060;-57
2023/10/02 06:47:32;;;;;;;14.40;7.55;;;15.30;76.20;;;16.87;56.05;98297.25;5031848;28;20064;-58
2023/10/02 06:50:03;;;;;;;16.38;8.68;;;15.30;76.30;;;16.90;56.20;98299.59;5033520;28;20425;-57
2023/10/02 06:52:33;;;;;;;15.38;7.70;;;15.30;76.40;;;16.93;56.17;98304.59;5033510;28;20045;-58
2023/10/02 06:55:03;;;;;;;13.75;7.82;;;15.40;76.40;;;16.97;56.43;98294.28;5031173;28;20052;-58
2023/10/02 06:57:32;;;;;;;14.90;8.52;;;15.40;76.40;;;17.00;56.39;98293.94;5031806;28;20045;-58
2023/10/02 07:00:03;;;;;;;13.45;7.93;;;15.50;76.70;;;17.05;56.05;98294.19;5033540;28;20045;-56
2023/10/02 07:02:32;;;;;;;15.60;8.40;;;15.50;76.60;;;17.09;56.30;98298.16;5032523;28;20041;-57
2023/10/02 07:05:00;;;;;;;14.63;8.50;;;15.60;76.20;;;17.17;56.58;98296.41;5033097;28;20045;-56
2023/10/02 07:07:30;;;;;;;13.98;8.35;;;15.70;76.20;;;17.22;56.43;98300.22;5032855;28;20045;-55
2023/10/02 07:10:08;;;;;;;16.33;8.30;;;15.70;76.40;;;17.27;56.69;98297.78;5033225;28;20037;-56
2023/10/02 07:12:40;;;;;;;16.08;7.82;;;15.80;76.20;;;17.32;56.66;98295.34;5032868;28;20037;-56
2023/10/02 07:15:22;;;;;;;15.55;8.02;;;15.90;76.30;;;17.38;56.55;98296.47;5031782;28;20109;-55
2023/10/02 07:18:00;;;;;;;15.15;8.43;;;16.00;75.90;;;17.45;56.44;98296.56;5032638;28;20037;-55
2023/10/02 07:20:42;;;;;;;14.70;9.00;;;16.00;75.80;;;17.48;56.65;98293.47;5024541;28;20076;-57
2023/10/02 07:23:19;;;;;;;18.80;9.25;;;16.10;76.30;;;17.56;56.89;98300.59;5032991;28;20041;-58
2023/10/02 07:25:52;;;;;;;14.85;9.20;;;16.20;76.60;;;17.60;56.87;98297.34;5031711;28;20056;-57
2023/10/02 07:28:21;;;;;;;18.23;8.32;;;16.20;76.70;;;17.66;56.71;98293.03;5032763;28;20041;-60
2023/10/02 07:30:53;;;;;;;14.55;8.40;;;16.30;76.30;;;17.71;56.67;98296.00;5031574;28;20092;-59
2023/10/02 07:33:20;;;;;;;15.57;8.40;;;16.40;75.40;;;17.76;56.53;98292.72;5032705;28;20046;-59
2023/10/02 07:35:55;;;;;;;15.95;8.35;;;16.40;75.10;;;17.81;56.50;98285.75;5031127;28;20044;-59
2023/10/02 07:38:30;;;;;;;16.88;8.57;;;16.50;74.90;;;17.88;56.62;98292.06;5032680;28;20037;-59
2023/10/02 07:41:06;;;;;;;12.63;7.28;;;16.60;75.00;;;17.95;57.01;98286.75;5031386;28;20116;-59
2023/10/02 07:43:35;;;;;;;13.43;7.88;;;16.70;76.30;;;18.05;57.22;98286.44;5032557;28;20041;-59
2023/10/02 07:46:14;;;;;;;19.17;8.50;;;16.80;75.70;;;18.13;57.02;98289.00;5031942;28;20045;-59
2023/10/02 07:48:55;;;;;;;17.85;9.15;;;16.90;75.50;;;18.24;56.88;98287.63;5032359;28;20053;-59
2023/10/02 07:51:30;;;;;;;19.60;8.57;;;17.10;75.30;;;18.33;56.83;98291.84;5031178;28;20041;-59
2023/10/02 07:53:59;;;;;;;15.68;7.63;;;17.10;75.00;;;18.45;56.77;98286.75;5031702;28;20038;-59
2023/10/02 07:56:29;;;;;;;17.05;7.85;;;17.30;74.60;;;18.54;56.47;98292.84;5022949;28;20041;-61
2023/10/02 07:59:02;;;;;;;17.95;8.32;;;17.30;74.20;;;18.63;56.50;98289.78;5032444;28;20362;-62
2023/10/02 08:01:33;;;;;;;14.23;7.55;;;17.50;74.00;;;18.75;56.17;98286.56;5024610;28;20041;-61
2023/10/02 08:04:03;;;;;;;17.35;9.13;;;17.60;73.50;;;18.84;55.97;98288.06;5032071;28;20044;-61
2023/10/02 08:11:54;;;;;;;16.17;8.45;;;17.80;72.30;;;19.03;55.48;98289.22;5024455;28;20046;-61
2023/10/02 08:14:42;;;;;;;17.02;8.55;;;17.80;72.10;;;19.10;55.17;98284.69;5030932;28;20049;-62
2023/10/02 08:17:22;;;;;;;20.00;10.13;;;17.90;71.80;;;19.16;55.24;98278.50;5031695;28;20416;-61
2023/10/02 08:19:55;;;;;;;15.02;8.18;;;18.00;71.70;;;19.23;54.82;98283.91;5031920;28;20519;-62
2023/10/02 08:22:25;;;;;;;17.67;10.15;;;18.10;71.20;;;19.31;54.95;98278.34;5029786;28;20531;-62
2023/10/02 08:24:55;;;;;;;18.70;9.27;;;18.10;70.70;;;19.40;54.52;98281.69;5030676;28;20412;-61
2023/10/02 08:27:23;;;;;;;19.33;8.70;;;18.30;70.60;;;19.47;54.61;98279.84;5030069;28;20041;-62
2023/10/02 08:29:52;;;;;;;17.90;9.95;;;18.30;70.10;;;19.55;54.35;98278.84;5031776;28;20038;-61
2023/10/02 08:32:28;;;;;;;15.40;8.57;;;18.40;69.90;;;19.65;54.31;98274.69;5031476;28;20037;-61
2023/10/02 08:34:57;;;;;;;21.65;8.43;;;18.50;69.80;;;19.76;54.02;98283.31;5031389;28;20042;-61
2023/10/02 08:37:25;;;;;;;15.95;9.25;;;18.60;69.40;;;19.82;54.06;98279.78;5029606;28;20413;-61
2023/10/02 08:39:53;;;;;;;18.02;9.50;;;18.70;69.30;;;19.90;53.76;98282.28;5029673;28;20056;-61
2023/10/02 08:42:24;;;;;;;19.60;9.02;;;18.80;68.70;;;19.98;53.76;98279.38;5031316;28;20086;-61
2023/10/02 08:44:58;;;;;;;18.65;10.02;;;18.90;68.50;;;20.09;53.47;98280.63;5031389;28;20046;-62
2023/10/02 08:47:27;;;;;;;20.73;9.80;;;19.00;67.90;;;20.15;52.86;98279.81;5030988;28;20056;-62
2023/10/02 08:50:04;;;;;;;19.33;9.45;;;19.00;67.40;;;20.21;52.82;98275.44;5031443;28;20440;-63
2023/10/02 08:52:39;;;;;;;18.92;9.23;;;19.10;68.50;;;20.30;52.83;98279.59;5022046;28;20037;-62
2023/10/02 08:55:33;;;;;;;20.52;10.55;;;19.20;67.50;;;20.36;53.09;98275.25;5031085;28;20386;-62
2023/10/02 08:58:15;;;;;;;19.92;9.75;;;19.20;66.50;;;20.48;52.71;98267.31;5040530;28;20416;-63
2023/10/02 09:03:45;;;;;;;21.13;9.63;;;19.40;66.00;;;20.61;52.36;98270.06;5022224;28;20045;-64
2023/10/02 09:06:35;;;;;;;19.67;9.43;;;19.50;66.70;;;20.67;52.35;98271.91;5030754;28;20042;-61
2023/10/02 09:09:13;;;;;;;20.23;9.60;;;19.60;66.90;;;20.75;52.18;98266.25;5031108;28;20038;-62
2023/10/02 09:11:45;;;;;;;20.83;9.93;;;19.60;66.50;;;20.81;52.24;98264.59;5029398;28;20515;-62
2023/10/02 09:15:20;;;;;;;18.65;10.70;;;19.70;66.30;;;20.85;52.28;98271.25;5030106;28;20038;-62
2023/10/02 09:17:23;;;;;;;21.13;10.73;;;19.70;66.00;;;20.91;51.64;98270.38;5035077;28;20050;-62
2023/10/02 09:20:07;;;;;;;23.10;10.93;;;19.80;65.80;;;20.93;51.61;98270.19;5021781;28;20064;-62
2023/10/02 09:22:41;;;;;;;19.88;10.55;;;19.80;65.00;;;21.00;51.57;98266.41;5029947;28;20038;-62
2023/10/02 09:25:13;;;;;;;21.35;11.52;;;19.90;65.50;;;21.06;51.47;98261.19;5030701;28;20052;-62
2023/10/02 09:27:56;;;;;;;21.90;12.18;;;20.00;64.30;;;21.12;51.03;98260.34;5023033;28;20041;-62
2023/10/02 09:30:49;;;;;;;;;;;20.00;64.20;;;21.20;51.83;98254.69;5031150;28;20045;-62
2023/10/02 09:33:16;;;;;;;22.90;11.50;;;20.10;63.60;;;21.33;51.04;98260.03;5023332;28;19921;-62
2023/10/02 09:36:06;;;;;;;23.38;11.10;;;20.10;64.70;;;21.39;50.59;98261.88;5027806;28;20053;-62
2023/10/02 09:38:56;;;;;;;24.75;11.77;;;20.30;64.00;;;21.46;50.48;98261.88;5027552;28;20042;-62
2023/10/02 09:41:25;;;;;;;21.42;9.90;;;20.40;63.30;;;21.54;50.21;98255.34;5029834;28;20521;-62
2023/10/02 09:43:54;;;;;;;20.55;10.43;;;20.40;63.20;;;21.57;49.95;98247.63;5028575;28;20497;-62
2023/10/02 09:46:22;;;;;;;19.27;11.35;;;20.50;62.80;;;21.63;50.17;98254.06;5029200;28;20417;-62
2023/10/02 09:49:19;;;;;;;21.42;11.30;;;20.50;62.70;;;21.70;50.07;98248.63;5029540;28;20045;-62
2023/10/02 09:52:10;;;;;;;19.88;10.73;;;20.60;62.00;;;21.82;49.95;98242.25;5016030;28;20107;-61
2023/10/02 09:54:48;;;;;;;24.23;11.80;;;20.70;62.30;;;21.90;49.50;98240.34;5024836;28;20041;-61
2023/10/02 09:57:31;;;;;;;23.20;11.52;;;20.80;60.70;;;21.94;49.36;98241.56;5028945;28;20053;-61
2023/10/02 09:59:59;;;;;;;25.38;12.52;;;20.90;61.30;;;21.97;48.90;98243.84;5030854;28;20069;-62
2023/10/02 10:10:57;;;;;;;24.80;12.68;;;21.20;59.40;;;22.29;47.72;98227.56;5030729;28;20553;-61
2023/10/02 10:13:46;;;;;;;21.38;12.40;;;21.20;57.70;;;22.31;47.90;98234.41;5029472;28;20057;-60
2023/10/02 10:16:19;;;;;;;23.38;13.25;;;21.40;58.70;;;22.38;47.24;98224.31;5030172;28;20041;-62
2023/10/02 10:22:03;;;;;;;23.42;13.07;;;21.40;56.60;;;22.47;46.56;98221.31;5030410;28;20056;-63
2023/10/02 10:27:38;;;;;;;26.33;13.70;;;21.50;56.20;;;22.65;45.82;98221.34;5029899;28;20497;-61
2023/10/02 10:30:28;;;;;;;26.50;12.43;;;21.50;54.80;;;22.67;45.48;98210.28;5030450;28;20044;-61
2023/10/02 10:35:51;;;;;;;;;;;21.70;53.50;;;22.82;45.46;98208.03;5030520;28;20041;-61
2023/10/02 10:38:21;;;;;;;23.17;13.57;;;21.70;52.00;;;22.91;44.51;98203.94;5033650;28;19921;-61
2023/10/02 10:40:53;;;;;;;31.60;13.50;;;21.80;53.70;;;23.02;43.64;98199.63;5026413;28;20057;-61
2023/10/02 10:43:26;;;;;;;26.10;13.13;;;21.90;53.80;;;23.11;43.94;98209.16;5032452;28;20045;-61
2023/10/02 10:45:54;;;;;;;;;;;22.00;53.30;;;23.14;44.43;98205.97;5033678;28;20041;-61
2023/10/02 10:48:23;;;;;;;29.52;14.65;;;22.00;50.10;;;23.23;43.11;98203.78;5032271;28;19944;-61
2023/10/02 10:51:06;;;;;;;24.45;13.88;;;22.00;52.80;;;23.21;42.93;98197.75;5033371;28;20049;-61
2023/10/02 10:53:39;;;;;;;27.67;13.48;;;22.10;52.10;;;23.18;43.08;98200.91;5032417;28;20041;-61
2023/10/02 10:56:17;;;;;;;29.20;13.32;;;22.10;52.70;;;23.22;42.48;98195.88;5033223;28;20440;-60
2023/10/02 10:59:11;;;;;;;26.02;13.75;;;22.10;51.50;;;23.28;42.50;98200.38;5033147;28;20045;-61
2023/10/02 11:02:10;;;;;;;24.13;12.85;;;22.20;50.30;;;23.31;42.58;98197.22;5033230;28;20421;-60
2023/10/02 11:04:40;;;;;;;27.95;14.98;;;22.20;50.30;;;23.36;42.17;98200.91;5032858;28;20046;-61
2023/10/02 11:07:23;;;;;;;30.67;15.18;;;22.30;51.30;;;23.38;41.29;98195.25;5031394;28;20053;-62
2023/10/02 11:10:15;;;;;;;26.25;14.25;;;22.30;49.50;;;23.43;41.24;98189.94;5025390;28;20108;-60
2023/10/02 11:12:57;;;;;;;28.77;14.02;;;22.40;49.50;;;23.54;40.96;98189.13;5032999;28;20045;-61
2023/10/02 11:18:18;;;;;;;22.27;12.35;;;22.60;52.70;;;23.62;43.36;98184.44;5032142;28;20053;-61
2023/10/02 11:20:55;;;;;;;23.55;13.20;;;22.60;53.40;;;23.68;43.07;98184.31;5032730;28;20064;-61
2023/10/02 11:23:46;;;;;;;26.27;13.73;;;22.70;51.80;;;23.79;41.39;98188.19;5033068;28;20056;-61
2023/10/02 11:26:14;;;;;;;26.83;13.40;;;22.80;47.90;;;23.87;41.09;98185.13;5031612;28;20041;-61
2023/10/02 11:28:44;;;;;;;21.50;12.88;;;22.80;49.40;;;23.94;42.32;98180.41;5032830;28;20049;-61
2023/10/02 11:31:32;;;;;;;22.50;12.05;;;23.00;52.30;;;23.97;42.90;98179.91;5031589;28;20045;-61
2023/10/02 11:34:08;;;;;;;23.08;11.85;;;23.10;52.00;;;24.06;42.97;98176.84;5025809;28;20041;-61
2023/10/02 11:36:55;;;;;;;23.58;12.50;;;23.20;52.50;;;24.12;43.13;98173.22;5010705;28;20516;-61
2023/10/02 11:39:29;;;;;;;20.70;12.75;;;23.30;52.20;;;24.11;42.40;98163.38;5032583;28;20045;-61
2023/10/02 11:41:59;;;;;;;;;;;23.40;51.30;;;24.18;43.03;98167.63;5025158;28;20042;-61
2023/10/02 11:44:27;;;;;;;23.02;11.73;;;23.50;49.70;;;24.31;42.31;98168.44;5032406;28;19928;-61
2023/10/02 11:46:56;;;;;;;24.80;14.02;;;23.40;50.90;;;24.38;42.02;98164.53;5031847;28;20096;-61
2023/10/02 11:49:23;;;;;;;21.00;11.45;;;23.40;50.40;;;24.47;41.77;98167.75;5032400;28;20053;-61
2023/10/02 11:51:51;;;;;;;27.40;13.20;;;23.50;50.60;;;24.55;41.36;98151.06;5024336;28;20048;-61
2023/10/02 11:54:19;;;;;;;24.35;13.68;;;23.60;50.20;;;24.62;41.02;98150.97;5032124;28;20052;-61
2023/10/02 11:56:47;;;;;;;27.90;14.23;;;23.60;49.80;;;24.68;41.12;98149.16;5031904;28;20045;-63
2023/10/02 11:59:14;;;;;;;26.50;14.65;;;23.60;49.40;;;24.71;41.10;98146.78;5032212;28;20037;-62